Terminal Aerodrome Forecast
Issued by NWS Springfield, MO

Home | Current Version | Previous Version | Text Only | Print | Product List | Glossary On
Versions: 1 2 3 4 5 6 7 8 9 10 11 12 13 14 15 16 17 18 19 20 21 22 23 24 25 26
174
FTUS43 KSGF 240704 AAB
TAFSGF
TAF AMD
KSGF 240704Z 2407/2506 18014G24KT P6SM SCT150 WS020/22045KT
     FM241000 28012G20KT P6SM SCT050 BKN100
     FM241100 30010G20KT P6SM OVC015
     FM241600 30015G22KT P6SM OVC025=

USA.gov is the U.S. government's official web portal to all federal, state and local government web resources and services.